sensor_id;sensor_type;location;lat;lon;timestamp;P1;durP1;ratioP1;P2;durP2;ratioP2
64065;SDS011;50318;54.760;9.408;2023-02-01T00:00:15;37.20;;;6.68;;
64065;SDS011;50318;54.760;9.408;2023-02-01T00:02:42;29.40;;;4.72;;
64065;SDS011;50318;54.760;9.408;2023-02-01T00:05:08;35.63;;;4.95;;
64065;SDS011;50318;54.760;9.408;2023-02-01T00:07:37;32.38;;;4.80;;
64065;SDS011;50318;54.760;9.408;2023-02-01T00:10:04;23.58;;;3.78;;
64065;SDS011;50318;54.760;9.408;2023-02-01T00:12:33;33.08;;;5.13;;
64065;SDS011;50318;54.760;9.408;2023-02-01T00:15:00;28.10;;;4.35;;
64065;SDS011;50318;54.760;9.408;2023-02-01T00:17:26;28.20;;;4.75;;
64065;SDS011;50318;54.760;9.408;2023-02-01T00:19:53;25.40;;;4.80;;
64065;SDS011;50318;54.760;9.408;2023-02-01T00:22:19;26.95;;;4.85;;
64065;SDS011;50318;54.760;9.408;2023-02-01T00:24:45;28.40;;;4.28;;
64065;SDS011;50318;54.760;9.408;2023-02-01T00:27:15;31.92;;;5.00;;
64065;SDS011;50318;54.760;9.408;2023-02-01T00:29:41;25.58;;;4.50;;
64065;SDS011;50318;54.760;9.408;2023-02-01T00:32:07;29.38;;;4.80;;
64065;SDS011;50318;54.760;9.408;2023-02-01T00:34:36;30.40;;;4.38;;
64065;SDS011;50318;54.760;9.408;2023-02-01T00:37:02;35.97;;;4.82;;
64065;SDS011;50318;54.760;9.408;2023-02-01T00:39:29;35.97;;;5.45;;
64065;SDS011;50318;54.760;9.408;2023-02-01T00:41:59;41.15;;;6.18;;
64065;SDS011;50318;54.760;9.408;2023-02-01T00:44:31;42.10;;;6.05;;
64065;SDS011;50318;54.760;9.408;2023-02-01T00:47:01;48.88;;;6.25;;
64065;SDS011;50318;54.760;9.408;2023-02-01T00:49:28;41.50;;;6.88;;
64065;SDS011;50318;54.760;9.408;2023-02-01T00:51:57;49.22;;;6.90;;
64065;SDS011;50318;54.760;9.408;2023-02-01T00:54:28;64.22;;;7.93;;
64065;SDS011;50318;54.760;9.408;2023-02-01T00:56:54;53.80;;;8.25;;
64065;SDS011;50318;54.760;9.408;2023-02-01T01:02:21;62.50;;;10.20;;
64065;SDS011;50318;54.760;9.408;2023-02-01T01:04:47;58.65;;;9.40;;
64065;SDS011;50318;54.760;9.408;2023-02-01T01:07:14;72.38;;;11.05;;
64065;SDS011;50318;54.760;9.408;2023-02-01T01:09:40;76.40;;;11.75;;
64065;SDS011;50318;54.760;9.408;2023-02-01T01:12:06;73.78;;;11.43;;
64065;SDS011;50318;54.760;9.408;2023-02-01T01:14:33;60.05;;;9.88;;
64065;SDS011;50318;54.760;9.408;2023-02-01T01:17:10;44.40;;;6.70;;
64065;SDS011;50318;54.760;9.408;2023-02-01T01:19:39;35.58;;;6.43;;
64065;SDS011;50318;54.760;9.408;2023-02-01T01:22:05;44.92;;;6.70;;
64065;SDS011;50318;54.760;9.408;2023-02-01T01:24:31;52.05;;;7.55;;
64065;SDS011;50318;54.760;9.408;2023-02-01T01:27:00;57.70;;;8.75;;
64065;SDS011;50318;54.760;9.408;2023-02-01T01:29:26;60.38;;;9.48;;
64065;SDS011;50318;54.760;9.408;2023-02-01T01:31:52;69.38;;;9.73;;
64065;SDS011;50318;54.760;9.408;2023-02-01T01:34:20;70.47;;;9.82;;
64065;SDS011;50318;54.760;9.408;2023-02-01T01:36:49;62.83;;;9.10;;
64065;SDS011;50318;54.760;9.408;2023-02-01T01:39:16;83.72;;;11.02;;
64065;SDS011;50318;54.760;9.408;2023-02-01T01:41:45;74.30;;;11.95;;
64065;SDS011;50318;54.760;9.408;2023-02-01T01:47:20;71.80;;;11.43;;
64065;SDS011;50318;54.760;9.408;2023-02-01T01:49:47;85.00;;;11.73;;
64065;SDS011;50318;54.760;9.408;2023-02-01T01:52:13;71.28;;;11.63;;
64065;SDS011;50318;54.760;9.408;2023-02-01T01:54:42;69.95;;;12.05;;
64065;SDS011;50318;54.760;9.408;2023-02-01T01:57:12;73.65;;;11.13;;
64065;SDS011;50318;54.760;9.408;2023-02-01T02:00:01;79.57;;;11.73;;
64065;SDS011;50318;54.760;9.408;2023-02-01T02:02:40;71.40;;;10.10;;
64065;SDS011;50318;54.760;9.408;2023-02-01T02:05:07;73.05;;;11.25;;
64065;SDS011;50318;54.760;9.408;2023-02-01T02:07:36;71.50;;;11.82;;
64065;SDS011;50318;54.760;9.408;2023-02-01T02:10:05;83.28;;;12.30;;
64065;SDS011;50318;54.760;9.408;2023-02-01T02:12:40;75.80;;;10.68;;
64065;SDS011;50318;54.760;9.408;2023-02-01T02:15:11;76.60;;;11.38;;
64065;SDS011;50318;54.760;9.408;2023-02-01T02:18:09;66.85;;;11.00;;
64065;SDS011;50318;54.760;9.408;2023-02-01T02:35:02;72.45;;;10.30;;
64065;SDS011;50318;54.760;9.408;2023-02-01T02:37:41;73.72;;;12.15;;
64065;SDS011;50318;54.760;9.408;2023-02-01T02:43:21;83.05;;;12.57;;
64065;SDS011;50318;54.760;9.408;2023-02-01T02:51:49;77.60;;;12.82;;
64065;SDS011;50318;54.760;9.408;2023-02-01T02:54:24;75.03;;;13.00;;
64065;SDS011;50318;54.760;9.408;2023-02-01T02:56:55;80.18;;;12.20;;
64065;SDS011;50318;54.760;9.408;2023-02-01T02:59:24;74.78;;;11.82;;
64065;SDS011;50318;54.760;9.408;2023-02-01T03:01:52;87.43;;;12.77;;
64065;SDS011;50318;54.760;9.408;2023-02-01T03:04:19;80.78;;;12.40;;
64065;SDS011;50318;54.760;9.408;2023-02-01T03:06:48;93.07;;;13.63;;
64065;SDS011;50318;54.760;9.408;2023-02-01T03:09:34;70.00;;;11.80;;
64065;SDS011;50318;54.760;9.408;2023-02-01T03:12:07;78.30;;;11.73;;
64065;SDS011;50318;54.760;9.408;2023-02-01T03:14:38;69.18;;;10.80;;
64065;SDS011;50318;54.760;9.408;2023-02-01T03:17:19;74.30;;;11.40;;
64065;SDS011;50318;54.760;9.408;2023-02-01T03:20:10;74.78;;;10.80;;
64065;SDS011;50318;54.760;9.408;2023-02-01T03:22:58;75.70;;;12.05;;
64065;SDS011;50318;54.760;9.408;2023-02-01T03:25:46;82.38;;;11.60;;
64065;SDS011;50318;54.760;9.408;2023-02-01T03:28:35;73.32;;;11.45;;
64065;SDS011;50318;54.760;9.408;2023-02-01T03:31:28;67.40;;;10.32;;
64065;SDS011;50318;54.760;9.408;2023-02-01T03:34:15;66.88;;;10.98;;
64065;SDS011;50318;54.760;9.408;2023-02-01T03:36:46;74.07;;;10.95;;
64065;SDS011;50318;54.760;9.408;2023-02-01T03:39:21;71.17;;;10.93;;
64065;SDS011;50318;54.760;9.408;2023-02-01T03:42:05;75.22;;;11.00;;
64065;SDS011;50318;54.760;9.408;2023-02-01T03:44:38;72.30;;;10.60;;
64065;SDS011;50318;54.760;9.408;2023-02-01T03:47:13;80.63;;;11.00;;
64065;SDS011;50318;54.760;9.408;2023-02-01T03:49:51;85.43;;;11.82;;
64065;SDS011;50318;54.760;9.408;2023-02-01T03:52:37;75.30;;;11.13;;
64065;SDS011;50318;54.760;9.408;2023-02-01T03:55:04;68.25;;;10.77;;
64065;SDS011;50318;54.760;9.408;2023-02-01T03:57:37;78.40;;;11.50;;
64065;SDS011;50318;54.760;9.408;2023-02-01T04:00:08;72.72;;;11.63;;
64065;SDS011;50318;54.760;9.408;2023-02-01T04:02:50;74.18;;;11.85;;
64065;SDS011;50318;54.760;9.408;2023-02-01T04:05:17;73.40;;;12.15;;
64065;SDS011;50318;54.760;9.408;2023-02-01T04:07:52;78.03;;;10.88;;
64065;SDS011;50318;54.760;9.408;2023-02-01T04:10:18;64.80;;;11.23;;
64065;SDS011;50318;54.760;9.408;2023-02-01T04:12:44;84.30;;;12.07;;
64065;SDS011;50318;54.760;9.408;2023-02-01T04:15:10;76.63;;;11.65;;
64065;SDS011;50318;54.760;9.408;2023-02-01T04:17:36;73.18;;;10.85;;
64065;SDS011;50318;54.760;9.408;2023-02-01T04:20:02;77.38;;;11.75;;
64065;SDS011;50318;54.760;9.408;2023-02-01T04:22:29;83.20;;;11.77;;
64065;SDS011;50318;54.760;9.408;2023-02-01T04:24:55;82.68;;;12.40;;
64065;SDS011;50318;54.760;9.408;2023-02-01T04:27:21;78.20;;;11.60;;
64065;SDS011;50318;54.760;9.408;2023-02-01T04:29:47;81.25;;;12.05;;
64065;SDS011;50318;54.760;9.408;2023-02-01T04:32:14;74.70;;;11.70;;
64065;SDS011;50318;54.760;9.408;2023-02-01T04:34:41;74.43;;;12.48;;
64065;SDS011;50318;54.760;9.408;2023-02-01T04:37:07;78.55;;;11.77;;
64065;SDS011;50318;54.760;9.408;2023-02-01T04:39:34;80.32;;;11.95;;
64065;SDS011;50318;54.760;9.408;2023-02-01T04:42:00;64.90;;;10.20;;
64065;SDS011;50318;54.760;9.408;2023-02-01T04:44:26;70.32;;;10.40;;
64065;SDS011;50318;54.760;9.408;2023-02-01T04:46:52;64.25;;;9.73;;
64065;SDS011;50318;54.760;9.408;2023-02-01T04:49:18;61.13;;;9.73;;
64065;SDS011;50318;54.760;9.408;2023-02-01T04:51:45;62.25;;;10.10;;
64065;SDS011;50318;54.760;9.408;2023-02-01T04:54:11;46.47;;;7.63;;
64065;SDS011;50318;54.760;9.408;2023-02-01T04:56:37;45.25;;;7.97;;
64065;SDS011;50318;54.760;9.408;2023-02-01T04:59:03;52.90;;;8.18;;
64065;SDS011;50318;54.760;9.408;2023-02-01T05:01:30;51.60;;;8.60;;
64065;SDS011;50318;54.760;9.408;2023-02-01T05:03:57;54.20;;;8.38;;
64065;SDS011;50318;54.760;9.408;2023-02-01T05:06:23;48.10;;;8.57;;
64065;SDS011;50318;54.760;9.408;2023-02-01T05:08:50;55.20;;;7.70;;
64065;SDS011;50318;54.760;9.408;2023-02-01T05:11:16;49.35;;;9.27;;
64065;SDS011;50318;54.760;9.408;2023-02-01T05:13:42;50.97;;;7.88;;
64065;SDS011;50318;54.760;9.408;2023-02-01T05:16:08;49.50;;;7.88;;
64065;SDS011;50318;54.760;9.408;2023-02-01T05:18:34;39.63;;;6.82;;
64065;SDS011;50318;54.760;9.408;2023-02-01T05:21:01;46.38;;;7.38;;
64065;SDS011;50318;54.760;9.408;2023-02-01T05:23:27;43.10;;;6.07;;
64065;SDS011;50318;54.760;9.408;2023-02-01T05:25:57;39.05;;;7.68;;
64065;SDS011;50318;54.760;9.408;2023-02-01T05:28:24;34.97;;;6.35;;
64065;SDS011;50318;54.760;9.408;2023-02-01T05:30:51;38.88;;;6.80;;
64065;SDS011;50318;54.760;9.408;2023-02-01T05:33:17;40.65;;;6.50;;
64065;SDS011;50318;54.760;9.408;2023-02-01T05:35:43;38.33;;;6.22;;
64065;SDS011;50318;54.760;9.408;2023-02-01T05:38:09;40.67;;;5.80;;
64065;SDS011;50318;54.760;9.408;2023-02-01T05:40:35;40.33;;;6.65;;
64065;SDS011;50318;54.760;9.408;2023-02-01T05:43:01;42.92;;;7.20;;
64065;SDS011;50318;54.760;9.408;2023-02-01T05:45:28;48.13;;;7.60;;
64065;SDS011;50318;54.760;9.408;2023-02-01T05:47:54;46.72;;;8.30;;
64065;SDS011;50318;54.760;9.408;2023-02-01T05:50:20;44.75;;;7.30;;
64065;SDS011;50318;54.760;9.408;2023-02-01T05:52:54;50.60;;;8.25;;
64065;SDS011;50318;54.760;9.408;2023-02-01T05:55:20;51.08;;;8.57;;
64065;SDS011;50318;54.760;9.408;2023-02-01T05:57:46;53.45;;;8.45;;
64065;SDS011;50318;54.760;9.408;2023-02-01T06:00:13;52.83;;;9.02;;
64065;SDS011;50318;54.760;9.408;2023-02-01T06:02:39;51.33;;;8.68;;
64065;SDS011;50318;54.760;9.408;2023-02-01T06:05:05;55.30;;;9.00;;
64065;SDS011;50318;54.760;9.408;2023-02-01T06:07:32;56.67;;;9.25;;
64065;SDS011;50318;54.760;9.408;2023-02-01T06:09:58;57.50;;;9.38;;
64065;SDS011;50318;54.760;9.408;2023-02-01T06:12:24;44.70;;;8.73;;
64065;SDS011;50318;54.760;9.408;2023-02-01T06:14:50;57.10;;;9.48;;
64065;SDS011;50318;54.760;9.408;2023-02-01T06:17:16;56.63;;;9.00;;
64065;SDS011;50318;54.760;9.408;2023-02-01T06:19:47;46.17;;;8.55;;
64065;SDS011;50318;54.760;9.408;2023-02-01T06:22:16;54.17;;;8.98;;
64065;SDS011;50318;54.760;9.408;2023-02-01T06:24:42;52.72;;;9.15;;
64065;SDS011;50318;54.760;9.408;2023-02-01T06:27:09;53.97;;;8.98;;
64065;SDS011;50318;54.760;9.408;2023-02-01T06:29:40;48.42;;;8.30;;
64065;SDS011;50318;54.760;9.408;2023-02-01T06:32:06;58.50;;;8.55;;
64065;SDS011;50318;54.760;9.408;2023-02-01T06:34:35;42.22;;;8.10;;
64065;SDS011;50318;54.760;9.408;2023-02-01T06:37:02;55.58;;;9.07;;
64065;SDS011;50318;54.760;9.408;2023-02-01T06:39:28;50.30;;;8.52;;
64065;SDS011;50318;54.760;9.408;2023-02-01T06:41:54;45.60;;;7.82;;
64065;SDS011;50318;54.760;9.408;2023-02-01T06:44:20;54.95;;;8.30;;
64065;SDS011;50318;54.760;9.408;2023-02-01T06:46:47;45.60;;;7.78;;
64065;SDS011;50318;54.760;9.408;2023-02-01T06:49:13;43.53;;;7.93;;
64065;SDS011;50318;54.760;9.408;2023-02-01T06:51:39;43.03;;;7.82;;
64065;SDS011;50318;54.760;9.408;2023-02-01T06:54:08;48.08;;;8.50;;
64065;SDS011;50318;54.760;9.408;2023-02-01T06:56:35;50.75;;;8.32;;
64065;SDS011;50318;54.760;9.408;2023-02-01T06:59:07;45.85;;;8.70;;
64065;SDS011;50318;54.760;9.408;2023-02-01T07:01:34;50.22;;;7.97;;
64065;SDS011;50318;54.760;9.408;2023-02-01T07:04:00;46.10;;;8.20;;
64065;SDS011;50318;54.760;9.408;2023-02-01T07:06:26;49.38;;;8.63;;
64065;SDS011;50318;54.760;9.408;2023-02-01T07:08:55;42.47;;;7.82;;
64065;SDS011;50318;54.760;9.408;2023-02-01T07:11:23;49.97;;;8.93;;
64065;SDS011;50318;54.760;9.408;2023-02-01T07:13:53;55.70;;;9.20;;
64065;SDS011;50318;54.760;9.408;2023-02-01T07:16:20;44.97;;;8.38;;
64065;SDS011;50318;54.760;9.408;2023-02-01T07:18:46;45.92;;;7.38;;
64065;SDS011;50318;54.760;9.408;2023-02-01T07:21:13;45.65;;;8.57;;
64065;SDS011;50318;54.760;9.408;2023-02-01T07:23:42;43.00;;;7.57;;
64065;SDS011;50318;54.760;9.408;2023-02-01T07:26:09;42.03;;;7.75;;
64065;SDS011;50318;54.760;9.408;2023-02-01T07:28:38;42.58;;;8.20;;
64065;SDS011;50318;54.760;9.408;2023-02-01T07:33:35;47.40;;;7.78;;
64065;SDS011;50318;54.760;9.408;2023-02-01T07:36:03;46.03;;;7.95;;
64065;SDS011;50318;54.760;9.408;2023-02-01T07:38:32;45.78;;;7.35;;
64065;SDS011;50318;54.760;9.408;2023-02-01T07:40:59;48.90;;;7.95;;
64065;SDS011;50318;54.760;9.408;2023-02-01T07:43:26;38.60;;;7.45;;
64065;SDS011;50318;54.760;9.408;2023-02-01T07:45:54;46.90;;;8.50;;
64065;SDS011;50318;54.760;9.408;2023-02-01T07:48:21;45.47;;;7.38;;
64065;SDS011;50318;54.760;9.408;2023-02-01T07:50:48;49.50;;;8.63;;
64065;SDS011;50318;54.760;9.408;2023-02-01T07:53:28;46.08;;;7.65;;
64065;SDS011;50318;54.760;9.408;2023-02-01T07:55:56;44.45;;;7.97;;
64065;SDS011;50318;54.760;9.408;2023-02-01T07:58:22;46.40;;;8.45;;
64065;SDS011;50318;54.760;9.408;2023-02-01T08:00:49;47.63;;;7.82;;
64065;SDS011;50318;54.760;9.408;2023-02-01T08:03:16;42.67;;;7.72;;
64065;SDS011;50318;54.760;9.408;2023-02-01T08:05:42;43.75;;;8.60;;
64065;SDS011;50318;54.760;9.408;2023-02-01T08:08:08;43.42;;;7.63;;
64065;SDS011;50318;54.760;9.408;2023-02-01T08:10:35;41.97;;;7.93;;
64065;SDS011;50318;54.760;9.408;2023-02-01T08:13:01;42.70;;;6.80;;
64065;SDS011;50318;54.760;9.408;2023-02-01T08:15:30;41.33;;;6.97;;
64065;SDS011;50318;54.760;9.408;2023-02-01T08:17:56;36.28;;;5.88;;
64065;SDS011;50318;54.760;9.408;2023-02-01T08:20:22;29.75;;;5.45;;
64065;SDS011;50318;54.760;9.408;2023-02-01T08:22:52;26.17;;;5.82;;
64065;SDS011;50318;54.760;9.408;2023-02-01T08:25:18;23.73;;;4.70;;
64065;SDS011;50318;54.760;9.408;2023-02-01T08:27:45;28.05;;;4.70;;
64065;SDS011;50318;54.760;9.408;2023-02-01T08:30:11;27.08;;;4.75;;
64065;SDS011;50318;54.760;9.408;2023-02-01T08:32:37;28.33;;;5.15;;
64065;SDS011;50318;54.760;9.408;2023-02-01T08:35:04;22.02;;;4.43;;
64065;SDS011;50318;54.760;9.408;2023-02-01T08:37:30;32.58;;;5.45;;
64065;SDS011;50318;54.760;9.408;2023-02-01T08:39:57;34.67;;;6.30;;
64065;SDS011;50318;54.760;9.408;2023-02-01T08:42:23;44.80;;;6.38;;
64065;SDS011;50318;54.760;9.408;2023-02-01T08:44:49;40.55;;;7.07;;
64065;SDS011;50318;54.760;9.408;2023-02-01T08:47:15;35.90;;;6.38;;
64065;SDS011;50318;54.760;9.408;2023-02-01T08:49:42;34.30;;;6.28;;
64065;SDS011;50318;54.760;9.408;2023-02-01T08:52:08;41.08;;;6.63;;
64065;SDS011;50318;54.760;9.408;2023-02-01T08:54:34;37.88;;;6.78;;
64065;SDS011;50318;54.760;9.408;2023-02-01T08:57:00;34.08;;;6.82;;
64065;SDS011;50318;54.760;9.408;2023-02-01T08:59:27;37.35;;;6.88;;
64065;SDS011;50318;54.760;9.408;2023-02-01T09:01:53;39.42;;;7.30;;
64065;SDS011;50318;54.760;9.408;2023-02-01T09:04:19;39.63;;;7.25;;
64065;SDS011;50318;54.760;9.408;2023-02-01T09:06:45;41.50;;;7.40;;
64065;SDS011;50318;54.760;9.408;2023-02-01T09:09:11;45.75;;;8.52;;
64065;SDS011;50318;54.760;9.408;2023-02-01T09:11:37;42.22;;;7.28;;
64065;SDS011;50318;54.760;9.408;2023-02-01T09:14:03;40.85;;;6.93;;
64065;SDS011;50318;54.760;9.408;2023-02-01T09:16:29;46.25;;;8.13;;
64065;SDS011;50318;54.760;9.408;2023-02-01T09:18:56;40.88;;;7.15;;
64065;SDS011;50318;54.760;9.408;2023-02-01T09:21:22;42.38;;;7.30;;
64065;SDS011;50318;54.760;9.408;2023-02-01T09:23:49;36.25;;;7.10;;
64065;SDS011;50318;54.760;9.408;2023-02-01T09:26:16;51.95;;;7.97;;
64065;SDS011;50318;54.760;9.408;2023-02-01T09:28:42;44.78;;;8.60;;
64065;SDS011;50318;54.760;9.408;2023-02-01T09:31:09;41.58;;;7.60;;
64065;SDS011;50318;54.760;9.408;2023-02-01T09:33:35;52.30;;;8.77;;
64065;SDS011;50318;54.760;9.408;2023-02-01T09:36:02;40.72;;;7.95;;
64065;SDS011;50318;54.760;9.408;2023-02-01T09:38:33;46.47;;;8.18;;
64065;SDS011;50318;54.760;9.408;2023-02-01T09:40:59;40.70;;;7.50;;
64065;SDS011;50318;54.760;9.408;2023-02-01T09:43:31;52.15;;;8.98;;
64065;SDS011;50318;54.760;9.408;2023-02-01T09:48:52;47.60;;;8.10;;
64065;SDS011;50318;54.760;9.408;2023-02-01T09:51:31;50.78;;;8.60;;
64065;SDS011;50318;54.760;9.408;2023-02-01T09:54:23;46.85;;;8.48;;
64065;SDS011;50318;54.760;9.408;2023-02-01T09:57:32;49.22;;;7.70;;
64065;SDS011;50318;54.760;9.408;2023-02-01T10:00:03;45.20;;;8.40;;
64065;SDS011;50318;54.760;9.408;2023-02-01T10:02:38;46.50;;;7.97;;
64065;SDS011;50318;54.760;9.408;2023-02-01T10:05:05;44.00;;;8.90;;
64065;SDS011;50318;54.760;9.408;2023-02-01T10:10:28;43.35;;;7.88;;
64065;SDS011;50318;54.760;9.408;2023-02-01T10:15:43;43.58;;;7.57;;
64065;SDS011;50318;54.760;9.408;2023-02-01T10:18:44;45.70;;;8.20;;
64065;SDS011;50318;54.760;9.408;2023-02-01T10:26:45;44.42;;;7.47;;
64065;SDS011;50318;54.760;9.408;2023-02-01T10:29:18;41.92;;;8.55;;
64065;SDS011;50318;54.760;9.408;2023-02-01T10:31:46;46.85;;;9.00;;
64065;SDS011;50318;54.760;9.408;2023-02-01T10:34:17;49.33;;;8.73;;
64065;SDS011;50318;54.760;9.408;2023-02-01T10:36:56;46.33;;;8.02;;
64065;SDS011;50318;54.760;9.408;2023-02-01T10:39:37;49.38;;;9.10;;
64065;SDS011;50318;54.760;9.408;2023-02-01T10:42:03;46.10;;;8.05;;
64065;SDS011;50318;54.760;9.408;2023-02-01T10:44:30;47.22;;;8.70;;
64065;SDS011;50318;54.760;9.408;2023-02-01T10:46:57;45.47;;;9.35;;
64065;SDS011;50318;54.760;9.408;2023-02-01T10:49:29;41.40;;;7.63;;
64065;SDS011;50318;54.760;9.408;2023-02-01T10:54:41;43.97;;;7.13;;
64065;SDS011;50318;54.760;9.408;2023-02-01T10:57:11;47.75;;;7.85;;
64065;SDS011;50318;54.760;9.408;2023-02-01T10:59:50;35.95;;;7.95;;
64065;SDS011;50318;54.760;9.408;2023-02-01T11:05:10;31.25;;;6.07;;
64065;SDS011;50318;54.760;9.408;2023-02-01T11:07:36;18.90;;;3.70;;
64065;SDS011;50318;54.760;9.408;2023-02-01T11:10:04;17.10;;;3.15;;
64065;SDS011;50318;54.760;9.408;2023-02-01T11:12:35;11.70;;;2.60;;
64065;SDS011;50318;54.760;9.408;2023-02-01T11:15:19;11.25;;;2.35;;
64065;SDS011;50318;54.760;9.408;2023-02-01T11:17:48;15.05;;;3.00;;
64065;SDS011;50318;54.760;9.408;2023-02-01T11:20:16;15.63;;;3.22;;
64065;SDS011;50318;54.760;9.408;2023-02-01T11:23:02;15.75;;;3.30;;
64065;SDS011;50318;54.760;9.408;2023-02-01T11:27:56;13.38;;;2.40;;
64065;SDS011;50318;54.760;9.408;2023-02-01T11:30:29;15.25;;;2.55;;
64065;SDS011;50318;54.760;9.408;2023-02-01T11:33:01;16.75;;;3.42;;
64065;SDS011;50318;54.760;9.408;2023-02-01T11:35:28;19.40;;;3.40;;
64065;SDS011;50318;54.760;9.408;2023-02-01T11:37:57;21.95;;;3.72;;
64065;SDS011;50318;54.760;9.408;2023-02-01T11:40:28;23.55;;;3.50;;
64065;SDS011;50318;54.760;9.408;2023-02-01T11:43:01;22.38;;;3.50;;
64065;SDS011;50318;54.760;9.408;2023-02-01T11:45:39;20.95;;;3.40;;
64065;SDS011;50318;54.760;9.408;2023-02-01T11:48:09;20.70;;;4.10;;
64065;SDS011;50318;54.760;9.408;2023-02-01T11:50:46;29.52;;;5.45;;
64065;SDS011;50318;54.760;9.408;2023-02-01T12:12:15;20.10;;;3.03;;
64065;SDS011;50318;54.760;9.408;2023-02-01T12:17:39;20.98;;;3.17;;
64065;SDS011;50318;54.760;9.408;2023-02-01T12:20:27;19.10;;;3.08;;
64065;SDS011;50318;54.760;9.408;2023-02-01T12:25:30;18.83;;;3.50;;
64065;SDS011;50318;54.760;9.408;2023-02-01T12:34:05;23.80;;;4.22;;
64065;SDS011;50318;54.760;9.408;2023-02-01T12:39:32;28.98;;;4.10;;
64065;SDS011;50318;54.760;9.408;2023-02-01T12:44:43;30.63;;;4.50;;
64065;SDS011;50318;54.760;9.408;2023-02-01T12:50:04;26.30;;;4.90;;
64065;SDS011;50318;54.760;9.408;2023-02-01T12:52:43;28.88;;;4.95;;
64065;SDS011;50318;54.760;9.408;2023-02-01T12:57:48;37.55;;;6.28;;
64065;SDS011;50318;54.760;9.408;2023-02-01T13:00:32;39.28;;;6.25;;
64065;SDS011;50318;54.760;9.408;2023-02-01T13:05:56;41.50;;;6.40;;
64065;SDS011;50318;54.760;9.408;2023-02-01T13:08:33;46.95;;;7.38;;
64065;SDS011;50318;54.760;9.408;2023-02-01T13:16:52;53.42;;;7.75;;
64065;SDS011;50318;54.760;9.408;2023-02-01T13:19:27;50.55;;;8.30;;
64065;SDS011;50318;54.760;9.408;2023-02-01T13:22:04;53.67;;;7.63;;
64065;SDS011;50318;54.760;9.408;2023-02-01T13:24:38;50.20;;;8.23;;
64065;SDS011;50318;54.760;9.408;2023-02-01T13:27:12;62.73;;;9.00;;
64065;SDS011;50318;54.760;9.408;2023-02-01T13:29:55;55.97;;;8.38;;
64065;SDS011;50318;54.760;9.408;2023-02-01T13:38:26;57.70;;;8.52;;
64065;SDS011;50318;54.760;9.408;2023-02-01T13:41:40;52.22;;;8.77;;
64065;SDS011;50318;54.760;9.408;2023-02-01T13:44:20;45.80;;;7.90;;
64065;SDS011;50318;54.760;9.408;2023-02-01T13:46:57;52.50;;;7.88;;
64065;SDS011;50318;54.760;9.408;2023-02-01T13:49:31;51.50;;;8.80;;
64065;SDS011;50318;54.760;9.408;2023-02-01T13:52:03;60.22;;;9.43;;
64065;SDS011;50318;54.760;9.408;2023-02-01T13:54:31;56.92;;;9.43;;
64065;SDS011;50318;54.760;9.408;2023-02-01T13:56:59;50.83;;;9.05;;
64065;SDS011;50318;54.760;9.408;2023-02-01T14:05:03;52.95;;;8.55;;
64065;SDS011;50318;54.760;9.408;2023-02-01T14:29:08;55.50;;;9.25;;
64065;SDS011;50318;54.760;9.408;2023-02-01T14:34:30;55.72;;;10.02;;
64065;SDS011;50318;54.760;9.408;2023-02-01T14:37:03;60.10;;;9.20;;
64065;SDS011;50318;54.760;9.408;2023-02-01T14:39:36;57.87;;;9.57;;
64065;SDS011;50318;54.760;9.408;2023-02-01T14:42:13;70.22;;;10.48;;
64065;SDS011;50318;54.760;9.408;2023-02-01T14:44:50;53.95;;;9.82;;
64065;SDS011;50318;54.760;9.408;2023-02-01T15:11:57;54.38;;;10.35;;
64065;SDS011;50318;54.760;9.408;2023-02-01T15:14:34;59.47;;;9.45;;
64065;SDS011;50318;54.760;9.408;2023-02-01T15:19:55;56.70;;;10.85;;
64065;SDS011;50318;54.760;9.408;2023-02-01T15:22:22;62.85;;;12.15;;
64065;SDS011;50318;54.760;9.408;2023-02-01T15:24:53;61.78;;;11.38;;
64065;SDS011;50318;54.760;9.408;2023-02-01T15:27:24;55.88;;;10.60;;
64065;SDS011;50318;54.760;9.408;2023-02-01T15:29:51;51.28;;;10.38;;
64065;SDS011;50318;54.760;9.408;2023-02-01T15:41:05;39.85;;;6.90;;
64065;SDS011;50318;54.760;9.408;2023-02-01T15:43:36;36.05;;;7.10;;
64065;SDS011;50318;54.760;9.408;2023-02-01T15:46:15;24.60;;;5.63;;
64065;SDS011;50318;54.760;9.408;2023-02-01T15:48:48;34.70;;;6.13;;
64065;SDS011;50318;54.760;9.408;2023-02-01T15:51:18;41.65;;;7.68;;
64065;SDS011;50318;54.760;9.408;2023-02-01T15:53:48;46.20;;;8.23;;
64065;SDS011;50318;54.760;9.408;2023-02-01T15:56:21;41.38;;;7.18;;
64065;SDS011;50318;54.760;9.408;2023-02-01T15:58:52;55.75;;;8.63;;
64065;SDS011;50318;54.760;9.408;2023-02-01T16:01:22;38.40;;;8.68;;
64065;SDS011;50318;54.760;9.408;2023-02-01T16:04:01;45.17;;;9.52;;
64065;SDS011;50318;54.760;9.408;2023-02-01T16:06:45;52.80;;;9.48;;
64065;SDS011;50318;54.760;9.408;2023-02-01T16:09:13;51.05;;;9.90;;
64065;SDS011;50318;54.760;9.408;2023-02-01T16:14:22;57.30;;;9.18;;
64065;SDS011;50318;54.760;9.408;2023-02-01T16:16:49;49.65;;;9.38;;
64065;SDS011;50318;54.760;9.408;2023-02-01T16:19:16;46.58;;;9.38;;
64065;SDS011;50318;54.760;9.408;2023-02-01T16:21:42;50.35;;;9.68;;
64065;SDS011;50318;54.760;9.408;2023-02-01T16:24:08;72.63;;;11.38;;
64065;SDS011;50318;54.760;9.408;2023-02-01T16:26:36;50.75;;;9.35;;
64065;SDS011;50318;54.760;9.408;2023-02-01T16:29:02;55.15;;;9.85;;
64065;SDS011;50318;54.760;9.408;2023-02-01T16:31:30;51.40;;;9.88;;
64065;SDS011;50318;54.760;9.408;2023-02-01T16:33:59;54.95;;;10.88;;
64065;SDS011;50318;54.760;9.408;2023-02-01T16:36:26;56.83;;;10.80;;
64065;SDS011;50318;54.760;9.408;2023-02-01T16:38:53;60.35;;;11.80;;
64065;SDS011;50318;54.760;9.408;2023-02-01T16:41:20;54.75;;;10.60;;
64065;SDS011;50318;54.760;9.408;2023-02-01T16:43:51;65.72;;;11.45;;
64065;SDS011;50318;54.760;9.408;2023-02-01T16:46:20;62.42;;;10.75;;
64065;SDS011;50318;54.760;9.408;2023-02-01T16:48:50;53.42;;;9.95;;
64065;SDS011;50318;54.760;9.408;2023-02-01T16:51:19;55.67;;;10.55;;
64065;SDS011;50318;54.760;9.408;2023-02-01T16:53:46;48.05;;;9.60;;
64065;SDS011;50318;54.760;9.408;2023-02-01T16:56:13;59.38;;;10.38;;
64065;SDS011;50318;54.760;9.408;2023-02-01T16:58:40;52.75;;;8.75;;
64065;SDS011;50318;54.760;9.408;2023-02-01T17:01:07;49.45;;;9.13;;
64065;SDS011;50318;54.760;9.408;2023-02-01T17:03:33;48.33;;;9.75;;
64065;SDS011;50318;54.760;9.408;2023-02-01T17:05:59;61.60;;;9.50;;
64065;SDS011;50318;54.760;9.408;2023-02-01T17:08:33;51.47;;;9.40;;
64065;SDS011;50318;54.760;9.408;2023-02-01T17:11:02;46.13;;;9.98;;
64065;SDS011;50318;54.760;9.408;2023-02-01T17:13:29;48.30;;;9.48;;
64065;SDS011;50318;54.760;9.408;2023-02-01T17:15:58;48.40;;;9.23;;
64065;SDS011;50318;54.760;9.408;2023-02-01T17:18:30;62.83;;;10.75;;
64065;SDS011;50318;54.760;9.408;2023-02-01T17:20:59;46.90;;;9.30;;
64065;SDS011;50318;54.760;9.408;2023-02-01T17:23:28;49.70;;;9.07;;
64065;SDS011;50318;54.760;9.408;2023-02-01T17:25:55;54.80;;;9.43;;
64065;SDS011;50318;54.760;9.408;2023-02-01T17:28:23;43.53;;;9.18;;
64065;SDS011;50318;54.760;9.408;2023-02-01T17:30:49;46.65;;;9.43;;
64065;SDS011;50318;54.760;9.408;2023-02-01T17:36:13;48.95;;;10.00;;
64065;SDS011;50318;54.760;9.408;2023-02-01T17:38:42;49.75;;;9.52;;
64065;SDS011;50318;54.760;9.408;2023-02-01T17:41:13;45.75;;;9.55;;
64065;SDS011;50318;54.760;9.408;2023-02-01T17:43:39;40.72;;;8.85;;
64065;SDS011;50318;54.760;9.408;2023-02-01T17:46:12;52.72;;;8.95;;
64065;SDS011;50318;54.760;9.408;2023-02-01T17:48:41;44.30;;;8.27;;